Alamosa, CO

11:05 AM MDT on October 02, 2014 (GMT -0600)
Alamosa | Change Station
CLOSE
Current Station
Personal Weather Station
Location: Alamosa, CO
Elevation: 7569 ft
Nearby Weather Stations
Active Advisory: Freeze Watch

Elev 7569 ft 37.49 °N, 105.90 °W | Updated 2 seconds ago

Clear
Clear
47.4 °F
Feels Like 44 °F
N
7.0
Wind Variable Wind from NW
Gusts 8.0 mph

Today
High -- | Low -- °F
--% Chance of Precip.
Yesterday
High -- | Low -- °F
Precip. -- in
6:59 AM 6:45 PM
First Quarter, 60% visible
Pressure 30.17 in
Visibility 10.0 miles
Clouds Clear
Windchill 44 °F
Dew Point 22 °F
Humidity 36%
Rainfall -999.00 in
Snow Depth 0 in , 0 in , 0 in
UV 4 out of 12
Pollen 4.80 out of 12
Air Quality Not available.
Flu Activity Not available.
METAR KALS 021552Z AUTO 34012KT 10SM CLR 07/M07 A3026 RMK AO2 SLP215 T00721072

More Conditions Fewer Conditions

Pressure 30.17 in
Visibility 10.0 miles
Clouds Clear
Windchill 44 °F
Dew Point 22 °F
Humidity 36%
Rainfall -999.00 in
Snow Depth 0 in , 0 in , 0 in
UV 4 out of 12
Pollen 4.80 out of 12
Air Quality Not available.
Flu Activity Not available.
METAR KALS 021552Z AUTO 34012KT 10SM CLR 07/M07 A3026 RMK AO2 SLP215 T00721072

More Conditions Fewer Conditions

10-Day Weather Forecast

Almanac

Astronomy

Oct. 02, 2014 Rise Set
Actual Time 6:59 AM MDT 6:45 PM MDT
Civil Twilight 6:33 AM MDT 7:11 PM MDT
Nautical Twilight 6:03 AM MDT 7:41 PM MDT
Astronomical Twilight 5:32 AM MDT 8:11 PM MDT
Moon 2:47 PM MDT 12:26 AM MDT
Length of Visible Light 12h 37m
Length of Day
11h 45m
Tomorrow will be 2m 23s shorter.
First Quarter, 60% of the Moon is Illuminated
Today
First Quarter
Oct 8
Full
Oct 15
Last Quarter
Oct 23
New
Oct 30
First Quarter

Today's Extremes

State Highs State Lows

Community

WunderPhotos

Upload Photos

1,758,298 photos uploaded!

Nearby

Snow Depth

Station Depth Elevation
Elk River 0 in 8700 ft
Molas Lake 0 in 10500 ft
Butte 0 in 10160 ft
Independence Pass 188 in 10600 ft
Vallecito 1 in 10880 ft

Earthquake Activity

City Distance Mag. Time & Date
Trinidad, Colorado 58 miles 2.9 3:55 AM MDT
2014-09-30
Minimum magnitude displayed is 2.5.

Coastal Water Temperatures

Place Temperature
No Stations Reporting

Nearby Weather Stations